Portada
METAR-TAF:

METAR-TAF

Aeroports :

Plataforma petroliera

P11-b, Països Baixos

latitud: 52-21-36N, longitud: 3-20-30E, altitud: 24 m

Observació

L'informe es va fer fa 25 minuts, a les 02:25 UTC
Vent 9 kt del Est
Temperatura 15°C
Humitat 94%
Pressió 1014 hPa
Visibilitat: 0600 m
Cel ennuvolat a una alçada menor de 100 ft
Cel ennuvolat a una alçada de 1500 ft, Cumulonimbus.
pluja

METAR: EHPG 180225Z AUTO 08009KT 0600 RA BKN000 BKN015CB 15/14 Q1014

Hora: 04:50 (02:50 UTC)


TAF: manca

Observacions i pronòstics meteorològics de més de 4000 aeroports (METAR i TAF).

Les estacions disponibles són els punts grocs i vermells al mapa.

Posi el ratolí al punt desitjat per veure el nom de l'estació.

Feu clic per veure les observacions i els pronòstics meteorològics.

Per canviar el mapa: feu clic els botons verds amb una creu de color negre per apropar; al botó verd amb un guió per allunyar la imatge; o en les fletxes verdes per a mapes adjacents.


METAR-TAF: